Roaz Corvineiro — CSLA — position and weather

sailwx.info

Track history (hours):
 
Tides and Currents Weather Stations Pressure Air Temp Water Temp Dewpoint Dewpoint Depression Visibility Wind Speed Wind Dir Waves Ship Positions

Roaz Corvineiro

Last reported at 2017-Oct-18 05:34 UTC. Time now 2017-Oct-18 11:36 UTC.
Position N 38°42' W 009°10'.

Length 40 m; draft 2 m.

Type: Passenger vessel. MMSI: 263701950.

Date/timePositionNaut miles runAvg speedWind from/ knotsBaromVisibWave heightAir tempDewpointWater temp
2017-Oct-18 05:34N 38°42' W 009°10'0 0.0
2017-Oct-18 05:19N 38°42' W 009°10'0 0.0
2017-Oct-18 04:58N 38°42' W 009°10'0 0.0
2017-Oct-18 01:58N 38°42' W 009°10'0 0.0
2017-Oct-18 01:16N 38°42' W 009°10'0 0.0
2017-Oct-17 23:46N 38°42' W 009°10'0 0.0
2017-Oct-17 15:58N 38°42' W 009°10'0 0.0
2017-Oct-17 12:37N 38°42' W 009°10'0 0.2
2017-Oct-17 12:28N 38°42' W 009°10'0 0.1
2017-Oct-17 11:59N 38°42' W 009°10'0 0.0
2017-Oct-17 11:30N 38°42' W 009°10'4 8.2
2017-Oct-17 11:00N 38°41' W 009°15'610.4
2017-Oct-17 10:28N 38°37' W 009°19'611.3
2017-Oct-17 09:58N 38°32' W 009°18'511.2
2017-Oct-17 09:30N 38°27' W 009°16'510.0
2017-Oct-17 08:59N 38°24' W 009°10'511.0
2017-Oct-17 08:31N 38°25' W 009°04'510.4
2017-Oct-17 08:01N 38°28' W 008°58'5 9.9
2017-Oct-17 07:31N 38°31' W 008°53'0 0.1
2017-Oct-17 07:00N 38°31' W 008°53'0 0.0
2017-Oct-17 06:26N 38°31' W 008°53'0 0.0
2017-Oct-17 05:10N 38°31' W 008°53'0 0.0
2017-Oct-16 17:37N 38°31' W 008°53'0 0.0
2017-Oct-16 17:28N 38°31' W 008°53'0 0.0
2017-Oct-16 16:58N 38°31' W 008°53'0 0.0
2017-Oct-16 16:28N 38°31' W 008°53'0 0.0
2017-Oct-16 15:43N 38°31' W 008°53'0 0.0
2017-Oct-16 15:25N 38°31' W 008°53'0 0.0
2017-Oct-16 13:55N 38°31' W 008°53'0 0.0
2017-Oct-16 13:25N 38°31' W 008°53'0 0.0
2017-Oct-16 05:52N 38°31' W 008°53'0 0.0
2017-Oct-16 05:30N 38°31' W 008°53'0 0.0
2017-Oct-16 05:00N 38°31' W 008°53'0 0.0
2017-Oct-16 04:30N 38°31' W 008°53'0 0.0
2017-Oct-16 04:00N 38°31' W 008°53'2 3.5
2017-Oct-16 03:31N 38°30' W 008°54'2 3.0
2017-Oct-16 02:58N 38°31' W 008°53'2 3.4
2017-Oct-16 02:29N 38°30' W 008°54'2 2.6
2017-Oct-16 01:51N 38°31' W 008°53'2 4.5
2017-Oct-16 01:30N 38°30' W 008°54'2 3.2
2017-Oct-16 00:59N 38°31' W 008°53'2 3.3
2017-Oct-16 00:30N 38°30' W 008°54'2 3.3
2017-Oct-16 00:00N 38°31' W 008°53'2 3.2
2017-Oct-15 23:30N 38°30' W 008°54'2 3.3
2017-Oct-15 23:00N 38°31' W 008°53'2 3.2
2017-Oct-15 22:30N 38°30' W 008°54'2 3.3
2017-Oct-15 22:00N 38°31' W 008°53'2 3.2
2017-Oct-15 21:30N 38°30' W 008°54'2 2.3
2017-Oct-15 20:48N 38°31' W 008°53'2 5.5
2017-Oct-15 20:30N 38°30' W 008°54'2 3.3
2017-Oct-15 20:00N 38°31' W 008°53'2 3.3
2017-Oct-15 19:30N 38°30' W 008°54'2 3.2
2017-Oct-15 18:59N 38°31' W 008°53'2 3.4
2017-Oct-15 18:30N 38°30' W 008°54'2 3.2
2017-Oct-15 18:00N 38°31' W 008°53'2 3.3
2017-Oct-15 17:30N 38°30' W 008°54'2 3.2
2017-Oct-15 17:00N 38°31' W 008°53'2 3.3
2017-Oct-15 16:30N 38°30' W 008°54'2 3.3
2017-Oct-15 16:00N 38°31' W 008°53'2 3.2
2017-Oct-15 15:30N 38°30' W 008°54'2 3.3
2017-Oct-15 15:00N 38°31' W 008°53'0 0.0
2017-Oct-15 14:00N 38°31' W 008°53'2 3.2
2017-Oct-15 13:30N 38°30' W 008°54'2 3.3
2017-Oct-15 13:00N 38°31' W 008°53'2 3.2
2017-Oct-15 12:30N 38°30' W 008°54'1 1.2
2017-Oct-15 11:42N 38°31' W 008°54'1 4.8
2017-Oct-15 11:30N 38°30' W 008°54'2 2.3
2017-Oct-15 10:48N 38°31' W 008°53'2 4.6
2017-Oct-15 10:27N 38°30' W 008°54'0 0.3
2017-Oct-15 09:35N 38°30' W 008°54'0 3.2
2017-Oct-15 09:30N 38°30' W 008°54'1 2.1
2017-Oct-15 08:48N 38°31' W 008°54'1 5.2
2017-Oct-15 08:30N 38°30' W 008°54'2 3.2
2017-Oct-15 08:00N 38°31' W 008°53'1 2.0
2017-Oct-15 07:28N 38°30' W 008°54'1 2.3
2017-Oct-15 07:00N 38°31' W 008°53'2 3.2
2017-Oct-15 06:30N 38°30' W 008°54'1 2.2
2017-Oct-15 05:57N 38°31' W 008°54'0 0.6
2017-Oct-15 05:30N 38°31' W 008°54'1 1.4
2017-Oct-15 04:58N 38°31' W 008°53'0 0.0
2017-Oct-15 03:58N 38°31' W 008°53'2 3.8
2017-Oct-15 03:30N 38°30' W 008°54'2 3.2
2017-Oct-15 03:00N 38°31' W 008°53'2 3.3
2017-Oct-15 02:30N 38°30' W 008°54'2 3.3
2017-Oct-15 02:00N 38°31' W 008°53'2 3.2
2017-Oct-15 01:30N 38°30' W 008°54'2 3.3
2017-Oct-15 01:00N 38°31' W 008°53'2 3.3
2017-Oct-15 00:30N 38°30' W 008°54'2 3.2
2017-Oct-15 00:00N 38°31' W 008°53'2 3.3
2017-Oct-14 23:30N 38°30' W 008°54'2 3.2
2017-Oct-14 23:00N 38°31' W 008°53'2 3.2
2017-Oct-14 22:30N 38°30' W 008°54'2 3.3
2017-Oct-14 22:00N 38°31' W 008°53'2 3.2
2017-Oct-14 21:30N 38°30' W 008°54'2 3.2
2017-Oct-14 21:00N 38°31' W 008°53'2 3.3
2017-Oct-14 20:30N 38°30' W 008°54'2 3.3
2017-Oct-14 20:00N 38°31' W 008°53'2 3.2
2017-Oct-14 19:30N 38°30' W 008°54'2 3.3
2017-Oct-14 19:00N 38°31' W 008°53'2 3.1
2017-Oct-14 18:29N 38°30' W 008°54'2 3.4
2017-Oct-14 18:00N 38°31' W 008°53'2 3.2
2017-Oct-14 17:30N 38°30' W 008°54'2 3.3
2017-Oct-14 17:00N 38°31' W 008°53'2 3.2
2017-Oct-14 16:30N 38°30' W 008°54'2 2.4
2017-Oct-14 15:49N 38°31' W 008°53'2 5.2
2017-Oct-14 15:30N 38°30' W 008°54'2 3.3
2017-Oct-14 15:00N 38°31' W 008°53'2 3.2
2017-Oct-14 14:30N 38°30' W 008°54'2 3.2
2017-Oct-14 14:00N 38°31' W 008°53'2 3.3
2017-Oct-14 13:30N 38°30' W 008°54'2 3.2
2017-Oct-14 13:00N 38°31' W 008°53'2 3.2
2017-Oct-14 12:30N 38°30' W 008°54'2 3.3
2017-Oct-14 12:00N 38°31' W 008°53'2 3.2
2017-Oct-14 11:30N 38°30' W 008°54'2 3.3
2017-Oct-14 11:00N 38°31' W 008°53'2 3.2
2017-Oct-14 10:30N 38°30' W 008°54'2 3.3
2017-Oct-14 10:00N 38°31' W 008°53'2 3.2
2017-Oct-14 09:30N 38°30' W 008°54'2 3.2
2017-Oct-14 09:00N 38°31' W 008°53'2 3.2
2017-Oct-14 08:30N 38°30' W 008°54'2 3.1
2017-Oct-14 07:59N 38°31' W 008°53'2 3.4
2017-Oct-14 07:31N 38°30' W 008°54'2 3.2
2017-Oct-14 07:00N 38°31' W 008°53'2 3.1
2017-Oct-14 06:30N 38°30' W 008°54'1 2.6
2017-Oct-14 06:00N 38°31' W 008°54'1 1.3
2017-Oct-14 05:30N 38°30' W 008°54'1 1.9
2017-Oct-14 04:58N 38°31' W 008°53'0 0.0
2017-Oct-14 04:28N 38°31' W 008°53'0 0.0
2017-Oct-14 03:58N 38°31' W 008°53'2 3.8
2017-Oct-14 03:30N 38°30' W 008°54'2 3.3
2017-Oct-14 03:00N 38°31' W 008°53'2 3.3
2017-Oct-14 02:30N 38°30' W 008°54'2 3.3
2017-Oct-14 02:00N 38°31' W 008°53'2 3.2
2017-Oct-14 01:30N 38°30' W 008°54'2 3.2
2017-Oct-14 01:00N 38°31' W 008°53'2 3.2
2017-Oct-14 00:30N 38°30' W 008°54'2 3.2
2017-Oct-14 00:00N 38°31' W 008°53'2 3.3
2017-Oct-13 23:30N 38°30' W 008°54'2 3.2
2017-Oct-13 23:00N 38°31' W 008°53'2 3.2
2017-Oct-13 22:30N 38°30' W 008°54'2 3.3
2017-Oct-13 22:00N 38°31' W 008°53'2 3.2
2017-Oct-13 21:30N 38°30' W 008°54'2 3.3
2017-Oct-13 21:00N 38°31' W 008°53'2 3.3
2017-Oct-13 20:30N 38°30' W 008°54'2 3.3
2017-Oct-13 20:00N 38°31' W 008°53'2 3.3
2017-Oct-13 19:30N 38°30' W 008°54'2 3.3
2017-Oct-13 19:00N 38°31' W 008°53'2 3.2
2017-Oct-13 18:30N 38°30' W 008°54'2 3.3
2017-Oct-13 18:00N 38°31' W 008°53'2 3.2
2017-Oct-13 17:30N 38°30' W 008°54'2 3.2
2017-Oct-13 17:00N 38°31' W 008°53'2 3.3
2017-Oct-13 16:30N 38°30' W 008°54'2 3.2
2017-Oct-13 16:00N 38°31' W 008°53'2 3.3
2017-Oct-13 15:30N 38°30' W 008°54'2 2.5
2017-Oct-13 14:52N 38°31' W 008°53'2 4.3
2017-Oct-13 14:29N 38°30' W 008°54'2 3.3
2017-Oct-13 14:00N 38°31' W 008°53'2 3.3
2017-Oct-13 13:30N 38°30' W 008°54'2 2.5
2017-Oct-13 12:52N 38°31' W 008°53'2 4.3
2017-Oct-13 12:29N 38°30' W 008°54'2 3.2
2017-Oct-13 11:59N 38°31' W 008°53'2 3.4
2017-Oct-13 11:30N 38°30' W 008°54'1 1.0
2017-Oct-13 10:40N 38°31' W 008°54'1 2.6
2017-Oct-13 10:21N 38°30' W 008°54'0 0.2
2017-Oct-13 09:34N 38°30' W 008°54'0 1.9
2017-Oct-13 09:30N 38°30' W 008°54'2 1.2
2017-Oct-13 08:12N 38°31' W 008°53'1 1.0
2017-Oct-13 06:42N 38°30' W 008°54'1 2.7
2017-Oct-13 06:20N 38°31' W 008°53'1 1.7
2017-Oct-13 05:50N 38°30' W 008°54'1 2.5
2017-Oct-13 05:26N 38°31' W 008°54'0 0.9
2017-Oct-13 04:57N 38°31' W 008°53'0 0.0
2017-Oct-13 04:15N 38°31' W 008°53'0 0.0
2017-Oct-13 04:00N 38°31' W 008°53'2 2.6
2017-Oct-13 03:20N 38°30' W 008°54'2 3.0
2017-Oct-13 02:47N 38°31' W 008°53'1 1.9
2017-Oct-13 02:12N 38°30' W 008°54'1 4.1
2017-Oct-13 01:56N 38°31' W 008°53'1 2.2
2017-Oct-13 01:16N 38°30' W 008°54'1 4.2
2017-Oct-13 00:55N 38°31' W 008°53'0 0.5
2017-Oct-13 00:09N 38°31' W 008°53'1 1.9
2017-Oct-12 23:40N 38°30' W 008°54'0 1.0
2017-Oct-12 23:18N 38°30' W 008°54'0 0.2
2017-Oct-12 22:36N 38°30' W 008°54'0 0.5
2017-Oct-12 22:14N 38°30' W 008°54'0 0.2
2017-Oct-12 21:22N 38°30' W 008°54'2 4.1
2017-Oct-12 20:58N 38°31' W 008°53'2 2.7
2017-Oct-12 20:22N 38°30' W 008°54'1 1.3
2017-Oct-12 19:39N 38°31' W 008°54'1 4.8
2017-Oct-12 19:28N 38°30' W 008°54'2 3.4
2017-Oct-12 19:00N 38°31' W 008°53'2 3.3
2017-Oct-12 18:30N 38°30' W 008°54'2 3.2
2017-Oct-12 18:00N 38°31' W 008°53'2 3.3
2017-Oct-12 17:30N 38°30' W 008°54'2 3.3
2017-Oct-12 17:00N 38°31' W 008°53'2 3.2
2017-Oct-12 16:29N 38°30' W 008°54'2 3.4
2017-Oct-12 16:00N 38°31' W 008°53'2 3.3
2017-Oct-12 15:30N 38°30' W 008°54'2 3.2
2017-Oct-12 15:00N 38°31' W 008°53'2 3.1
2017-Oct-12 14:29N 38°30' W 008°54'2 3.4
2017-Oct-12 14:00N 38°31' W 008°53'2 3.3
2017-Oct-12 13:30N 38°30' W 008°54'0 0.0
2017-Oct-12 12:32N 38°30' W 008°54'0 0.1
2017-Oct-12 12:29N 38°30' W 008°54'0 0.5
2017-Oct-12 11:37N 38°30' W 008°54'0 2.4
2017-Oct-12 11:26N 38°30' W 008°54'2 3.0
2017-Oct-12 10:54N 38°31' W 008°53'2 4.1
2017-Oct-12 10:30N 38°30' W 008°54'0 0.1
2017-Oct-12 09:34N 38°30' W 008°54'0 1.0
2017-Oct-12 09:28N 38°30' W 008°54'1 0.9
2017-Oct-12 08:41N 38°30' W 008°54'1 3.9
2017-Oct-12 08:30N 38°30' W 008°54'0 0.2
2017-Oct-12 07:46N 38°30' W 008°54'0 1.3
2017-Oct-12 07:30N 38°30' W 008°54'1 2.6
2017-Oct-12 06:58N 38°31' W 008°53'2 3.4
2017-Oct-12 06:29N 38°30' W 008°54'0 0.1
2017-Oct-12 05:48N 38°30' W 008°54'2 1.1
2017-Oct-12 04:15N 38°31' W 008°53'0 0.0
2017-Oct-12 03:51N 38°31' W 008°53'2 5.0
2017-Oct-12 03:30N 38°30' W 008°54'1 1.1
2017-Oct-12 02:41N 38°31' W 008°54'1 5.3
2017-Oct-12 02:30N 38°30' W 008°54'1 1.5
2017-Oct-12 01:46N 38°31' W 008°54'1 4.2
2017-Oct-12 01:30N 38°30' W 008°54'2 3.1
2017-Oct-12 00:58N 38°31' W 008°53'2 3.5
2017-Oct-12 00:30N 38°30' W 008°54'2 3.3
2017-Oct-12 00:00N 38°31' W 008°53'2 3.2
2017-Oct-11 23:30N 38°30' W 008°54'2 3.2
2017-Oct-11 23:00N 38°31' W 008°53'2 3.2
2017-Oct-11 22:30N 38°30' W 008°54'2 3.2
2017-Oct-11 22:00N 38°31' W 008°53'2 3.3
2017-Oct-11 21:30N 38°30' W 008°54'2 3.2
2017-Oct-11 21:00N 38°31' W 008°53'2 3.3
2017-Oct-11 20:30N 38°30' W 008°54'2 3.3
2017-Oct-11 20:00N 38°31' W 008°53'2 3.2
2017-Oct-11 19:30N 38°30' W 008°54'2 3.0
2017-Oct-11 18:58N 38°31' W 008°53'2 3.2
2017-Oct-11 18:27N 38°30' W 008°54'2 3.6
2017-Oct-11 18:00N 38°31' W 008°53'2 3.2
2017-Oct-11 17:30N 38°30' W 008°54'2 3.1
2017-Oct-11 16:59N 38°31' W 008°53'0 0.0
2017-Oct-11 00:00N 38°31' W 008°53'2 3.2
2017-Oct-10 23:30N 38°30' W 008°54'2 3.3
2017-Oct-10 23:00N 38°31' W 008°53'2 3.2
2017-Oct-10 22:30N 38°30' W 008°54'2 3.2
2017-Oct-10 22:00N 38°31' W 008°53'2 3.2
2017-Oct-10 21:30N 38°30' W 008°54'2 3.2
2017-Oct-10 21:00N 38°31' W 008°53'2 3.2
2017-Oct-10 20:30N 38°30' W 008°54'2 3.2
2017-Oct-10 20:00N 38°31' W 008°53'2 3.2
2017-Oct-10 19:30N 38°30' W 008°54'2 3.2
2017-Oct-10 19:00N 38°31' W 008°53'2 3.2
2017-Oct-10 18:30N 38°30' W 008°54'2 3.2
2017-Oct-10 18:00N 38°31' W 008°53'2 3.2
2017-Oct-10 17:30N 38°30' W 008°54'2 3.2
2017-Oct-10 17:00N 38°31' W 008°53'2 3.2
2017-Oct-10 16:30N 38°30' W 008°54'2 3.2
2017-Oct-10 16:00N 38°31' W 008°53'2 3.2
2017-Oct-10 15:30N 38°30' W 008°54'2 3.3
2017-Oct-10 15:00N 38°31' W 008°53'0 0.0
2017-Oct-10 14:00N 38°31' W 008°53'2 3.3
2017-Oct-10 13:30N 38°30' W 008°54'2 3.2
2017-Oct-10 13:00N 38°31' W 008°53'2 3.2
2017-Oct-10 12:30N 38°30' W 008°54'2 3.3
2017-Oct-10 12:00N 38°31' W 008°53'2 3.3
2017-Oct-10 11:30N 38°30' W 008°54'2 3.3
2017-Oct-10 11:00N 38°31' W 008°53'2 3.2
2017-Oct-10 10:30N 38°30' W 008°54'2 3.2
2017-Oct-10 10:00N 38°31' W 008°53'2 3.2
2017-Oct-10 09:30N 38°30' W 008°54'2 3.2
2017-Oct-10 09:00N 38°31' W 008°53'2 3.3
2017-Oct-10 08:30N 38°30' W 008°54'2 3.3
2017-Oct-10 08:00N 38°31' W 008°53'1 2.8
2017-Oct-10 07:30N 38°30' W 008°54'1 2.8
2017-Oct-10 07:00N 38°31' W 008°53'2 3.3
2017-Oct-10 06:30N 38°30' W 008°54'2 3.2
2017-Oct-10 06:01N 38°31' W 008°53'1 1.5
2017-Oct-10 05:30N 38°30' W 008°53'1 1.7
2017-Oct-10 05:00N 38°31' W 008°53'0 0.0
2017-Oct-10 04:30N 38°31' W 008°53'0 0.0
2017-Oct-10 04:00N 38°31' W 008°53'2 3.4
2017-Oct-10 03:30N 38°30' W 008°54'2 3.3
2017-Oct-10 03:00N 38°31' W 008°53'2 3.2
2017-Oct-10 02:30N 38°30' W 008°54'2 3.2
2017-Oct-10 02:00N 38°31' W 008°53'2 3.3
2017-Oct-10 01:30N 38°30' W 008°54'2 3.2
2017-Oct-10 01:00N 38°31' W 008°53'2 3.2
2017-Oct-10 00:30N 38°30' W 008°54'2 3.2
2017-Oct-10 00:00N 38°31' W 008°53'2 3.2
2017-Oct-09 23:30N 38°30' W 008°54'2 3.2
2017-Oct-09 23:00N 38°31' W 008°53'2 3.2
2017-Oct-09 22:30N 38°30' W 008°54'2 3.2
2017-Oct-09 22:00N 38°31' W 008°53'2 3.2
2017-Oct-09 21:30N 38°30' W 008°54'2 3.2
2017-Oct-09 21:00N 38°31' W 008°53'2 3.2
2017-Oct-09 20:30N 38°30' W 008°54'2 3.2
2017-Oct-09 20:00N 38°31' W 008°53'2 3.2
2017-Oct-09 19:30N 38°30' W 008°54'2 3.3
2017-Oct-09 19:00N 38°31' W 008°53'2 3.2
2017-Oct-09 18:30N 38°30' W 008°54'2 3.2
2017-Oct-09 18:00N 38°31' W 008°53'2 3.3
2017-Oct-09 17:30N 38°30' W 008°54'2 3.2
2017-Oct-09 17:00N 38°31' W 008°53'2 3.2
2017-Oct-09 16:30N 38°30' W 008°54'2 3.2
2017-Oct-09 16:00N 38°31' W 008°53'2 3.3
2017-Oct-09 15:30N 38°30' W 008°54'2 3.2
2017-Oct-09 15:00N 38°31' W 008°53'2 3.2
2017-Oct-09 14:30N 38°30' W 008°54'2 3.3
2017-Oct-09 14:00N 38°31' W 008°53'2 3.3
2017-Oct-09 13:30N 38°30' W 008°54'2 3.2
2017-Oct-09 13:00N 38°31' W 008°53'2 3.2
2017-Oct-09 12:30N 38°30' W 008°54'2 3.2
2017-Oct-09 12:00N 38°31' W 008°53'2 3.2
2017-Oct-09 11:30N 38°30' W 008°54'2 3.2
2017-Oct-09 11:00N 38°31' W 008°53'2 3.2
2017-Oct-09 10:30N 38°30' W 008°54'2 3.2
2017-Oct-09 10:00N 38°31' W 008°53'2 3.2
2017-Oct-09 09:30N 38°30' W 008°54'2 3.2
2017-Oct-09 09:00N 38°31' W 008°53'2 3.2
2017-Oct-09 08:30N 38°30' W 008°54'2 3.3
2017-Oct-09 08:00N 38°31' W 008°53'1 2.7
2017-Oct-09 07:30N 38°30' W 008°54'1 2.7
2017-Oct-09 07:00N 38°31' W 008°53'2 3.3
2017-Oct-09 06:30N 38°30' W 008°54'2 3.1
2017-Oct-09 06:00N 38°31' W 008°53'1 1.7
2017-Oct-09 05:30N 38°30' W 008°54'1 1.9
2017-Oct-09 04:58N 38°31' W 008°53'0 0.0
2017-Oct-09 04:28N 38°31' W 008°53'0 0.0
2017-Oct-09 03:58N 38°31' W 008°53'2 3.7
2017-Oct-09 03:30N 38°30' W 008°54'2 3.3
2017-Oct-09 03:00N 38°31' W 008°53'2 3.1
2017-Oct-09 02:29N 38°30' W 008°54'2 3.4
2017-Oct-09 02:00N 38°31' W 008°53'2 3.2
2017-Oct-09 01:30N 38°30' W 008°54'2 3.3
2017-Oct-09 01:00N 38°31' W 008°53'2 3.2
2017-Oct-09 00:30N 38°30' W 008°54'2 3.3
2017-Oct-09 00:00N 38°31' W 008°53'2 3.2
2017-Oct-08 23:30N 38°30' W 008°54'2 3.3
2017-Oct-08 23:00N 38°31' W 008°53'2 3.2
2017-Oct-08 22:30N 38°30' W 008°54'2 3.3
2017-Oct-08 22:00N 38°31' W 008°53'2 3.2
2017-Oct-08 21:30N 38°30' W 008°54'2 3.2
2017-Oct-08 21:00N 38°31' W 008°53'2 3.2
2017-Oct-08 20:30N 38°30' W 008°54'2 3.2
2017-Oct-08 20:00N 38°31' W 008°53'2 3.3
2017-Oct-08 19:30N 38°30' W 008°54'2 3.2
2017-Oct-08 19:00N 38°31' W 008°53'2 3.2
2017-Oct-08 18:30N 38°30' W 008°54'2 3.3
2017-Oct-08 18:00N 38°31' W 008°53'2 3.2
2017-Oct-08 17:30N 38°30' W 008°54'2 3.3
2017-Oct-08 17:00N 38°31' W 008°53'2 3.2
2017-Oct-08 16:30N 38°30' W 008°54'2 3.3
2017-Oct-08 16:00N 38°31' W 008°53'2 3.2
2017-Oct-08 15:30N 38°30' W 008°54'2 3.3
2017-Oct-08 15:00N 38°31' W 008°53'2 3.2
2017-Oct-08 14:30N 38°30' W 008°54'2 3.3
2017-Oct-08 14:00N 38°31' W 008°53'2 3.2
2017-Oct-08 13:30N 38°30' W 008°54'2 3.2
2017-Oct-08 13:00N 38°31' W 008°53'2 3.2
2017-Oct-08 12:30N 38°30' W 008°54'2 3.3
2017-Oct-08 12:00N 38°31' W 008°53'2 3.2
2017-Oct-08 11:30N 38°30' W 008°54'2 3.2
2017-Oct-08 11:00N 38°31' W 008°53'2 3.2
2017-Oct-08 10:30N 38°30' W 008°54'2 3.1
2017-Oct-08 09:59N 38°31' W 008°53'2 3.5
2017-Oct-08 09:30N 38°30' W 008°54'2 3.0
2017-Oct-08 08:58N 38°31' W 008°53'2 3.5
2017-Oct-08 08:30N 38°30' W 008°54'2 3.0
2017-Oct-08 07:58N 38°31' W 008°53'1 1.7
2017-Oct-08 07:27N 38°30' W 008°54'1 1.6
2017-Oct-08 06:53N 38°31' W 008°53'2 3.8
2017-Oct-08 06:28N 38°30' W 008°54'1 1.1
2017-Oct-08 05:53N 38°30' W 008°54'  
Track history (hours):
 
Tides and Currents Weather Stations Pressure Air Temp Water Temp Dewpoint Dewpoint Depression Visibility Wind Speed Wind Dir Waves Ship Positions

Roaz Corvineiro

Last reported at 2017-Oct-18 05:34 UTC. Time now 2017-Oct-18 11:36 UTC.
Position N 38°42' W 009°10'.

Length 40 m; draft 2 m.

Type: Passenger vessel. MMSI: 263701950.

Date/timePositionNaut miles runAvg speedWind from/ knotsBaromVisibWave heightAir tempDewpointWater temp
2017-Oct-18 05:34N 38°42' W 009°10'0 0.0
2017-Oct-18 05:19N 38°42' W 009°10'0 0.0
2017-Oct-18 04:58N 38°42' W 009°10'0 0.0
2017-Oct-18 01:58N 38°42' W 009°10'0 0.0
2017-Oct-18 01:16N 38°42' W 009°10'0 0.0
2017-Oct-17 23:46N 38°42' W 009°10'0 0.0
2017-Oct-17 15:58N 38°42' W 009°10'0 0.0
2017-Oct-17 12:37N 38°42' W 009°10'0 0.2
2017-Oct-17 12:28N 38°42' W 009°10'0 0.1
2017-Oct-17 11:59N 38°42' W 009°10'0 0.0
2017-Oct-17 11:30N 38°42' W 009°10'4 8.2
2017-Oct-17 11:00N 38°41' W 009°15'610.4
2017-Oct-17 10:28N 38°37' W 009°19'611.3
2017-Oct-17 09:58N 38°32' W 009°18'511.2
2017-Oct-17 09:30N 38°27' W 009°16'510.0
2017-Oct-17 08:59N 38°24' W 009°10'511.0
2017-Oct-17 08:31N 38°25' W 009°04'510.4
2017-Oct-17 08:01N 38°28' W 008°58'5 9.9
2017-Oct-17 07:31N 38°31' W 008°53'0 0.1
2017-Oct-17 07:00N 38°31' W 008°53'0 0.0
2017-Oct-17 06:26N 38°31' W 008°53'0 0.0
2017-Oct-17 05:10N 38°31' W 008°53'0 0.0
2017-Oct-16 17:37N 38°31' W 008°53'0 0.0
2017-Oct-16 17:28N 38°31' W 008°53'0 0.0
2017-Oct-16 16:58N 38°31' W 008°53'0 0.0
2017-Oct-16 16:28N 38°31' W 008°53'0 0.0
2017-Oct-16 15:43N 38°31' W 008°53'0 0.0
2017-Oct-16 15:25N 38°31' W 008°53'0 0.0
2017-Oct-16 13:55N 38°31' W 008°53'0 0.0
2017-Oct-16 13:25N 38°31' W 008°53'0 0.0
2017-Oct-16 05:52N 38°31' W 008°53'0 0.0
2017-Oct-16 05:30N 38°31' W 008°53'0 0.0
2017-Oct-16 05:00N 38°31' W 008°53'0 0.0
2017-Oct-16 04:30N 38°31' W 008°53'0 0.0
2017-Oct-16 04:00N 38°31' W 008°53'2 3.5
2017-Oct-16 03:31N 38°30' W 008°54'2 3.0
2017-Oct-16 02:58N 38°31' W 008°53'2 3.4
2017-Oct-16 02:29N 38°30' W 008°54'2 2.6
2017-Oct-16 01:51N 38°31' W 008°53'2 4.5
2017-Oct-16 01:30N 38°30' W 008°54'2 3.2
2017-Oct-16 00:59N 38°31' W 008°53'2 3.3
2017-Oct-16 00:30N 38°30' W 008°54'2 3.3
2017-Oct-16 00:00N 38°31' W 008°53'2 3.2
2017-Oct-15 23:30N 38°30' W 008°54'2 3.3
2017-Oct-15 23:00N 38°31' W 008°53'2 3.2
2017-Oct-15 22:30N 38°30' W 008°54'2 3.3
2017-Oct-15 22:00N 38°31' W 008°53'2 3.2
2017-Oct-15 21:30N 38°30' W 008°54'2 2.3
2017-Oct-15 20:48N 38°31' W 008°53'2 5.5
2017-Oct-15 20:30N 38°30' W 008°54'2 3.3
2017-Oct-15 20:00N 38°31' W 008°53'2 3.3
2017-Oct-15 19:30N 38°30' W 008°54'2 3.2
2017-Oct-15 18:59N 38°31' W 008°53'2 3.4
2017-Oct-15 18:30N 38°30' W 008°54'2 3.2
2017-Oct-15 18:00N 38°31' W 008°53'2 3.3
2017-Oct-15 17:30N 38°30' W 008°54'2 3.2
2017-Oct-15 17:00N 38°31' W 008°53'2 3.3
2017-Oct-15 16:30N 38°30' W 008°54'2 3.3
2017-Oct-15 16:00N 38°31' W 008°53'2 3.2
2017-Oct-15 15:30N 38°30' W 008°54'2 3.3
2017-Oct-15 15:00N 38°31' W 008°53'0 0.0
2017-Oct-15 14:00N 38°31' W 008°53'2 3.2
2017-Oct-15 13:30N 38°30' W 008°54'2 3.3
2017-Oct-15 13:00N 38°31' W 008°53'2 3.2
2017-Oct-15 12:30N 38°30' W 008°54'1 1.2
2017-Oct-15 11:42N 38°31' W 008°54'1 4.8
2017-Oct-15 11:30N 38°30' W 008°54'2 2.3
2017-Oct-15 10:48N 38°31' W 008°53'2 4.6
2017-Oct-15 10:27N 38°30' W 008°54'0 0.3
2017-Oct-15 09:35N 38°30' W 008°54'0 3.2
2017-Oct-15 09:30N 38°30' W 008°54'1 2.1
2017-Oct-15 08:48N 38°31' W 008°54'1 5.2
2017-Oct-15 08:30N 38°30' W 008°54'2 3.2
2017-Oct-15 08:00N 38°31' W 008°53'1 2.0
2017-Oct-15 07:28N 38°30' W 008°54'1 2.3
2017-Oct-15 07:00N 38°31' W 008°53'2 3.2
2017-Oct-15 06:30N 38°30' W 008°54'1 2.2
2017-Oct-15 05:57N 38°31' W 008°54'0 0.6
2017-Oct-15 05:30N 38°31' W 008°54'1 1.4
2017-Oct-15 04:58N 38°31' W 008°53'0 0.0
2017-Oct-15 03:58N 38°31' W 008°53'2 3.8
2017-Oct-15 03:30N 38°30' W 008°54'2 3.2
2017-Oct-15 03:00N 38°31' W 008°53'2 3.3
2017-Oct-15 02:30N 38°30' W 008°54'2 3.3
2017-Oct-15 02:00N 38°31' W 008°53'2 3.2
2017-Oct-15 01:30N 38°30' W 008°54'2 3.3
2017-Oct-15 01:00N 38°31' W 008°53'2 3.3
2017-Oct-15 00:30N 38°30' W 008°54'2 3.2
2017-Oct-15 00:00N 38°31' W 008°53'2 3.3
2017-Oct-14 23:30N 38°30' W 008°54'2 3.2
2017-Oct-14 23:00N 38°31' W 008°53'2 3.2
2017-Oct-14 22:30N 38°30' W 008°54'2 3.3
2017-Oct-14 22:00N 38°31' W 008°53'2 3.2
2017-Oct-14 21:30N 38°30' W 008°54'2 3.2
2017-Oct-14 21:00N 38°31' W 008°53'2 3.3
2017-Oct-14 20:30N 38°30' W 008°54'2 3.3
2017-Oct-14 20:00N 38°31' W 008°53'2 3.2
2017-Oct-14 19:30N 38°30' W 008°54'2 3.3
2017-Oct-14 19:00N 38°31' W 008°53'2 3.1
2017-Oct-14 18:29N 38°30' W 008°54'2 3.4
2017-Oct-14 18:00N 38°31' W 008°53'2 3.2
2017-Oct-14 17:30N 38°30' W 008°54'2 3.3
2017-Oct-14 17:00N 38°31' W 008°53'2 3.2
2017-Oct-14 16:30N 38°30' W 008°54'2 2.4
2017-Oct-14 15:49N 38°31' W 008°53'2 5.2
2017-Oct-14 15:30N 38°30' W 008°54'2 3.3
2017-Oct-14 15:00N 38°31' W 008°53'2 3.2
2017-Oct-14 14:30N 38°30' W 008°54'2 3.2
2017-Oct-14 14:00N 38°31' W 008°53'2 3.3
2017-Oct-14 13:30N 38°30' W 008°54'2 3.2
2017-Oct-14 13:00N 38°31' W 008°53'2 3.2
2017-Oct-14 12:30N 38°30' W 008°54'2 3.3
2017-Oct-14 12:00N 38°31' W 008°53'2 3.2
2017-Oct-14 11:30N 38°30' W 008°54'2 3.3
2017-Oct-14 11:00N 38°31' W 008°53'2 3.2
2017-Oct-14 10:30N 38°30' W 008°54'2 3.3
2017-Oct-14 10:00N 38°31' W 008°53'2 3.2
2017-Oct-14 09:30N 38°30' W 008°54'2 3.2
2017-Oct-14 09:00N 38°31' W 008°53'2 3.2
2017-Oct-14 08:30N 38°30' W 008°54'2 3.1
2017-Oct-14 07:59N 38°31' W 008°53'2 3.4
2017-Oct-14 07:31N 38°30' W 008°54'2 3.2
2017-Oct-14 07:00N 38°31' W 008°53'2 3.1
2017-Oct-14 06:30N 38°30' W 008°54'1 2.6
2017-Oct-14 06:00N 38°31' W 008°54'1 1.3
2017-Oct-14 05:30N 38°30' W 008°54'1 1.9
2017-Oct-14 04:58N 38°31' W 008°53'0 0.0
2017-Oct-14 04:28N 38°31' W 008°53'0 0.0
2017-Oct-14 03:58N 38°31' W 008°53'2 3.8
2017-Oct-14 03:30N 38°30' W 008°54'2 3.3
2017-Oct-14 03:00N 38°31' W 008°53'2 3.3
2017-Oct-14 02:30N 38°30' W 008°54'2 3.3
2017-Oct-14 02:00N 38°31' W 008°53'2 3.2
2017-Oct-14 01:30N 38°30' W 008°54'2 3.2
2017-Oct-14 01:00N 38°31' W 008°53'2 3.2
2017-Oct-14 00:30N 38°30' W 008°54'2 3.2
2017-Oct-14 00:00N 38°31' W 008°53'2 3.3
2017-Oct-13 23:30N 38°30' W 008°54'2 3.2
2017-Oct-13 23:00N 38°31' W 008°53'2 3.2
2017-Oct-13 22:30N 38°30' W 008°54'2 3.3
2017-Oct-13 22:00N 38°31' W 008°53'2 3.2
2017-Oct-13 21:30N 38°30' W 008°54'2 3.3
2017-Oct-13 21:00N 38°31' W 008°53'2 3.3
2017-Oct-13 20:30N 38°30' W 008°54'2 3.3
2017-Oct-13 20:00N 38°31' W 008°53'2 3.3
2017-Oct-13 19:30N 38°30' W 008°54'2 3.3
2017-Oct-13 19:00N 38°31' W 008°53'2 3.2
2017-Oct-13 18:30N 38°30' W 008°54'2 3.3
2017-Oct-13 18:00N 38°31' W 008°53'2 3.2
2017-Oct-13 17:30N 38°30' W 008°54'2 3.2
2017-Oct-13 17:00N 38°31' W 008°53'2 3.3
2017-Oct-13 16:30N 38°30' W 008°54'2 3.2
2017-Oct-13 16:00N 38°31' W 008°53'2 3.3
2017-Oct-13 15:30N 38°30' W 008°54'2 2.5
2017-Oct-13 14:52N 38°31' W 008°53'2 4.3
2017-Oct-13 14:29N 38°30' W 008°54'2 3.3
2017-Oct-13 14:00N 38°31' W 008°53'2 3.3
2017-Oct-13 13:30N 38°30' W 008°54'2 2.5
2017-Oct-13 12:52N 38°31' W 008°53'2 4.3
2017-Oct-13 12:29N 38°30' W 008°54'2 3.2
2017-Oct-13 11:59N 38°31' W 008°53'2 3.4
2017-Oct-13 11:30N 38°30' W 008°54'1 1.0
2017-Oct-13 10:40N 38°31' W 008°54'1 2.6
2017-Oct-13 10:21N 38°30' W 008°54'0 0.2
2017-Oct-13 09:34N 38°30' W 008°54'0 1.9
2017-Oct-13 09:30N 38°30' W 008°54'2 1.2
2017-Oct-13 08:12N 38°31' W 008°53'1 1.0
2017-Oct-13 06:42N 38°30' W 008°54'1 2.7
2017-Oct-13 06:20N 38°31' W 008°53'1 1.7
2017-Oct-13 05:50N 38°30' W 008°54'1 2.5
2017-Oct-13 05:26N 38°31' W 008°54'0 0.9
2017-Oct-13 04:57N 38°31' W 008°53'0 0.0
2017-Oct-13 04:15N 38°31' W 008°53'0 0.0
2017-Oct-13 04:00N 38°31' W 008°53'2 2.6
2017-Oct-13 03:20N 38°30' W 008°54'2 3.0
2017-Oct-13 02:47N 38°31' W 008°53'1 1.9
2017-Oct-13 02:12N 38°30' W 008°54'1 4.1
2017-Oct-13 01:56N 38°31' W 008°53'1 2.2
2017-Oct-13 01:16N 38°30' W 008°54'1 4.2
2017-Oct-13 00:55N 38°31' W 008°53'0 0.5
2017-Oct-13 00:09N 38°31' W 008°53'1 1.9
2017-Oct-12 23:40N 38°30' W 008°54'0 1.0
2017-Oct-12 23:18N 38°30' W 008°54'0 0.2
2017-Oct-12 22:36N 38°30' W 008°54'0 0.5
2017-Oct-12 22:14N 38°30' W 008°54'0 0.2
2017-Oct-12 21:22N 38°30' W 008°54'2 4.1
2017-Oct-12 20:58N 38°31' W 008°53'2 2.7
2017-Oct-12 20:22N 38°30' W 008°54'1 1.3
2017-Oct-12 19:39N 38°31' W 008°54'1 4.8
2017-Oct-12 19:28N 38°30' W 008°54'2 3.4
2017-Oct-12 19:00N 38°31' W 008°53'2 3.3
2017-Oct-12 18:30N 38°30' W 008°54'2 3.2
2017-Oct-12 18:00N 38°31' W 008°53'2 3.3
2017-Oct-12 17:30N 38°30' W 008°54'2 3.3
2017-Oct-12 17:00N 38°31' W 008°53'2 3.2
2017-Oct-12 16:29N 38°30' W 008°54'2 3.4
2017-Oct-12 16:00N 38°31' W 008°53'2 3.3
2017-Oct-12 15:30N 38°30' W 008°54'2 3.2
2017-Oct-12 15:00N 38°31' W 008°53'2 3.1
2017-Oct-12 14:29N 38°30' W 008°54'2 3.4
2017-Oct-12 14:00N 38°31' W 008°53'2 3.3
2017-Oct-12 13:30N 38°30' W 008°54'0 0.0
2017-Oct-12 12:32N 38°30' W 008°54'0 0.1
2017-Oct-12 12:29N 38°30' W 008°54'0 0.5
2017-Oct-12 11:37N 38°30' W 008°54'0 2.4
2017-Oct-12 11:26N 38°30' W 008°54'2 3.0
2017-Oct-12 10:54N 38°31' W 008°53'2 4.1
2017-Oct-12 10:30N 38°30' W 008°54'0 0.1
2017-Oct-12 09:34N 38°30' W 008°54'0 1.0
2017-Oct-12 09:28N 38°30' W 008°54'1 0.9
2017-Oct-12 08:41N 38°30' W 008°54'1 3.9
2017-Oct-12 08:30N 38°30' W 008°54'0 0.2
2017-Oct-12 07:46N 38°30' W 008°54'0 1.3
2017-Oct-12 07:30N 38°30' W 008°54'1 2.6
2017-Oct-12 06:58N 38°31' W 008°53'2 3.4
2017-Oct-12 06:29N 38°30' W 008°54'0 0.1
2017-Oct-12 05:48N 38°30' W 008°54'2 1.1
2017-Oct-12 04:15N 38°31' W 008°53'0 0.0
2017-Oct-12 03:51N 38°31' W 008°53'2 5.0
2017-Oct-12 03:30N 38°30' W 008°54'1 1.1
2017-Oct-12 02:41N 38°31' W 008°54'1 5.3
2017-Oct-12 02:30N 38°30' W 008°54'1 1.5
2017-Oct-12 01:46N 38°31' W 008°54'1 4.2
2017-Oct-12 01:30N 38°30' W 008°54'2 3.1
2017-Oct-12 00:58N 38°31' W 008°53'2 3.5
2017-Oct-12 00:30N 38°30' W 008°54'2 3.3
2017-Oct-12 00:00N 38°31' W 008°53'2 3.2
2017-Oct-11 23:30N 38°30' W 008°54'2 3.2
2017-Oct-11 23:00N 38°31' W 008°53'2 3.2
2017-Oct-11 22:30N 38°30' W 008°54'2 3.2
2017-Oct-11 22:00N 38°31' W 008°53'2 3.3
2017-Oct-11 21:30N 38°30' W 008°54'2 3.2
2017-Oct-11 21:00N 38°31' W 008°53'2 3.3
2017-Oct-11 20:30N 38°30' W 008°54'2 3.3
2017-Oct-11 20:00N 38°31' W 008°53'2 3.2
2017-Oct-11 19:30N 38°30' W 008°54'2 3.0
2017-Oct-11 18:58N 38°31' W 008°53'2 3.2
2017-Oct-11 18:27N 38°30' W 008°54'2 3.6
2017-Oct-11 18:00N 38°31' W 008°53'2 3.2
2017-Oct-11 17:30N 38°30' W 008°54'2 3.1
2017-Oct-11 16:59N 38°31' W 008°53'0 0.0
2017-Oct-11 00:00N 38°31' W 008°53'2 3.2
2017-Oct-10 23:30N 38°30' W 008°54'2 3.3
2017-Oct-10 23:00N 38°31' W 008°53'2 3.2
2017-Oct-10 22:30N 38°30' W 008°54'2 3.2
2017-Oct-10 22:00N 38°31' W 008°53'2 3.2
2017-Oct-10 21:30N 38°30' W 008°54'2 3.2
2017-Oct-10 21:00N 38°31' W 008°53'2 3.2
2017-Oct-10 20:30N 38°30' W 008°54'2 3.2
2017-Oct-10 20:00N 38°31' W 008°53'2 3.2
2017-Oct-10 19:30N 38°30' W 008°54'2 3.2
2017-Oct-10 19:00N 38°31' W 008°53'2 3.2
2017-Oct-10 18:30N 38°30' W 008°54'2 3.2
2017-Oct-10 18:00N 38°31' W 008°53'2 3.2
2017-Oct-10 17:30N 38°30' W 008°54'2 3.2
2017-Oct-10 17:00N 38°31' W 008°53'2 3.2
2017-Oct-10 16:30N 38°30' W 008°54'2 3.2
2017-Oct-10 16:00N 38°31' W 008°53'2 3.2
2017-Oct-10 15:30N 38°30' W 008°54'2 3.3
2017-Oct-10 15:00N 38°31' W 008°53'0 0.0
2017-Oct-10 14:00N 38°31' W 008°53'2 3.3
2017-Oct-10 13:30N 38°30' W 008°54'2 3.2
2017-Oct-10 13:00N 38°31' W 008°53'2 3.2
2017-Oct-10 12:30N 38°30' W 008°54'2 3.3
2017-Oct-10 12:00N 38°31' W 008°53'2 3.3
2017-Oct-10 11:30N 38°30' W 008°54'2 3.3
2017-Oct-10 11:00N 38°31' W 008°53'2 3.2
2017-Oct-10 10:30N 38°30' W 008°54'2 3.2
2017-Oct-10 10:00N 38°31' W 008°53'2 3.2
2017-Oct-10 09:30N 38°30' W 008°54'2 3.2
2017-Oct-10 09:00N 38°31' W 008°53'2 3.3
2017-Oct-10 08:30N 38°30' W 008°54'2 3.3
2017-Oct-10 08:00N 38°31' W 008°53'1 2.8
2017-Oct-10 07:30N 38°30' W 008°54'1 2.8
2017-Oct-10 07:00N 38°31' W 008°53'2 3.3
2017-Oct-10 06:30N 38°30' W 008°54'2 3.2
2017-Oct-10 06:01N 38°31' W 008°53'1 1.5
2017-Oct-10 05:30N 38°30' W 008°53'1 1.7
2017-Oct-10 05:00N 38°31' W 008°53'0 0.0
2017-Oct-10 04:30N 38°31' W 008°53'0 0.0
2017-Oct-10 04:00N 38°31' W 008°53'2 3.4
2017-Oct-10 03:30N 38°30' W 008°54'2 3.3
2017-Oct-10 03:00N 38°31' W 008°53'2 3.2
2017-Oct-10 02:30N 38°30' W 008°54'2 3.2
2017-Oct-10 02:00N 38°31' W 008°53'2 3.3
2017-Oct-10 01:30N 38°30' W 008°54'2 3.2
2017-Oct-10 01:00N 38°31' W 008°53'2 3.2
2017-Oct-10 00:30N 38°30' W 008°54'2 3.2
2017-Oct-10 00:00N 38°31' W 008°53'2 3.2
2017-Oct-09 23:30N 38°30' W 008°54'2 3.2
2017-Oct-09 23:00N 38°31' W 008°53'2 3.2
2017-Oct-09 22:30N 38°30' W 008°54'2 3.2
2017-Oct-09 22:00N 38°31' W 008°53'2 3.2
2017-Oct-09 21:30N 38°30' W 008°54'2 3.2
2017-Oct-09 21:00N 38°31' W 008°53'2 3.2
2017-Oct-09 20:30N 38°30' W 008°54'2 3.2
2017-Oct-09 20:00N 38°31' W 008°53'2 3.2
2017-Oct-09 19:30N 38°30' W 008°54'2 3.3
2017-Oct-09 19:00N 38°31' W 008°53'2 3.2
2017-Oct-09 18:30N 38°30' W 008°54'2 3.2
2017-Oct-09 18:00N 38°31' W 008°53'2 3.3
2017-Oct-09 17:30N 38°30' W 008°54'2 3.2
2017-Oct-09 17:00N 38°31' W 008°53'2 3.2
2017-Oct-09 16:30N 38°30' W 008°54'2 3.2
2017-Oct-09 16:00N 38°31' W 008°53'2 3.3
2017-Oct-09 15:30N 38°30' W 008°54'2 3.2
2017-Oct-09 15:00N 38°31' W 008°53'2 3.2
2017-Oct-09 14:30N 38°30' W 008°54'2 3.3
2017-Oct-09 14:00N 38°31' W 008°53'2 3.3
2017-Oct-09 13:30N 38°30' W 008°54'2 3.2
2017-Oct-09 13:00N 38°31' W 008°53'2 3.2
2017-Oct-09 12:30N 38°30' W 008°54'2 3.2
2017-Oct-09 12:00N 38°31' W 008°53'2 3.2
2017-Oct-09 11:30N 38°30' W 008°54'2 3.2
2017-Oct-09 11:00N 38°31' W 008°53'2 3.2
2017-Oct-09 10:30N 38°30' W 008°54'2 3.2
2017-Oct-09 10:00N 38°31' W 008°53'2 3.2
2017-Oct-09 09:30N 38°30' W 008°54'2 3.2
2017-Oct-09 09:00N 38°31' W 008°53'2 3.2
2017-Oct-09 08:30N 38°30' W 008°54'2 3.3
2017-Oct-09 08:00N 38°31' W 008°53'1 2.7
2017-Oct-09 07:30N 38°30' W 008°54'1 2.7
2017-Oct-09 07:00N 38°31' W 008°53'2 3.3
2017-Oct-09 06:30N 38°30' W 008°54'2 3.1
2017-Oct-09 06:00N 38°31' W 008°53'1 1.7
2017-Oct-09 05:30N 38°30' W 008°54'1 1.9
2017-Oct-09 04:58N 38°31' W 008°53'0 0.0
2017-Oct-09 04:28N 38°31' W 008°53'0 0.0
2017-Oct-09 03:58N 38°31' W 008°53'2 3.7
2017-Oct-09 03:30N 38°30' W 008°54'2 3.3
2017-Oct-09 03:00N 38°31' W 008°53'2 3.1
2017-Oct-09 02:29N 38°30' W 008°54'2 3.4
2017-Oct-09 02:00N 38°31' W 008°53'2 3.2
2017-Oct-09 01:30N 38°30' W 008°54'2 3.3
2017-Oct-09 01:00N 38°31' W 008°53'2 3.2
2017-Oct-09 00:30N 38°30' W 008°54'2 3.3
2017-Oct-09 00:00N 38°31' W 008°53'2 3.2
2017-Oct-08 23:30N 38°30' W 008°54'2 3.3
2017-Oct-08 23:00N 38°31' W 008°53'2 3.2
2017-Oct-08 22:30N 38°30' W 008°54'2 3.3
2017-Oct-08 22:00N 38°31' W 008°53'2 3.2
2017-Oct-08 21:30N 38°30' W 008°54'2 3.2
2017-Oct-08 21:00N 38°31' W 008°53'2 3.2
2017-Oct-08 20:30N 38°30' W 008°54'2 3.2
2017-Oct-08 20:00N 38°31' W 008°53'2 3.3
2017-Oct-08 19:30N 38°30' W 008°54'2 3.2
2017-Oct-08 19:00N 38°31' W 008°53'2 3.2
2017-Oct-08 18:30N 38°30' W 008°54'2 3.3
2017-Oct-08 18:00N 38°31' W 008°53'2 3.2
2017-Oct-08 17:30N 38°30' W 008°54'2 3.3
2017-Oct-08 17:00N 38°31' W 008°53'2 3.2
2017-Oct-08 16:30N 38°30' W 008°54'2 3.3
2017-Oct-08 16:00N 38°31' W 008°53'2 3.2
2017-Oct-08 15:30N 38°30' W 008°54'2 3.3
2017-Oct-08 15:00N 38°31' W 008°53'2 3.2
2017-Oct-08 14:30N 38°30' W 008°54'2 3.3
2017-Oct-08 14:00N 38°31' W 008°53'2 3.2
2017-Oct-08 13:30N 38°30' W 008°54'2 3.2
2017-Oct-08 13:00N 38°31' W 008°53'2 3.2
2017-Oct-08 12:30N 38°30' W 008°54'2 3.3
2017-Oct-08 12:00N 38°31' W 008°53'2 3.2
2017-Oct-08 11:30N 38°30' W 008°54'2 3.2
2017-Oct-08 11:00N 38°31' W 008°53'2 3.2
2017-Oct-08 10:30N 38°30' W 008°54'2 3.1
2017-Oct-08 09:59N 38°31' W 008°53'2 3.5
2017-Oct-08 09:30N 38°30' W 008°54'2 3.0
2017-Oct-08 08:58N 38°31' W 008°53'2 3.5
2017-Oct-08 08:30N 38°30' W 008°54'2 3.0
2017-Oct-08 07:58N 38°31' W 008°53'1 1.7
2017-Oct-08 07:27N 38°30' W 008°54'1 1.6
2017-Oct-08 06:53N 38°31' W 008°53'2 3.8
2017-Oct-08 06:28N 38°30' W 008°54'1 1.1
2017-Oct-08 05:53N 38°30' W 008°54'  

Dump ship's entire track history